Airfield :
LOGIN :

Register | Disclaimer

   EN    FR    IT 

 










Legend :    VFR   Marginal VFR   IFR   Intensive IFR   Very Intensive IFR
Visi :
Ceiling :
>= 8 km
>= 3000ft
5 to 8 km
1000 to 3000 ft
1500m to 5 km
500 to 1000 ft
800 to 1500m
200 to 500 ft
< 800m
< 200 ft
Symbols :   Thunderstorms  Fog  Heavy snow  Heavy precipitations  Wind > 20 kt
SIGMETs :     Misc.  Thunderstorms  Icing  Turbulence  Mountain Waves  Volcanic Ashes







- Airport Elevation : 1090 ft
- IATA code : CFE
- Download approach charts


LFLC - Clermont-Ferrand Auvergne

CURRENT METAR :
  • 271300Z AUTO 31006KT 280V350 9999 4200 -RA FEW024 BKN029 BKN040 16/11 Q1013 NOSIG

EXPIRED METARs :
  • 271230Z AUTO 06005KT 020V090 9999 FEW025 SCT039 BKN048 17/11 Q1013 TEMPO 30010G20KT
  • 271200Z AUTO 03006KT 350V080 9999 BKN033 BKN044 OVC058 16/11 Q1013 NOSIG
  • 271130Z AUTO 06007KT 030V110 9999 FEW029 BKN038 BKN048 18/10 Q1013 NOSIG
  • 271100Z AUTO 04005KT 360V080 9999 BKN032 OVC048 17/10 Q1014 NOSIG

TAF TAF LFLC
Valid from the 27 at 09:00 until the 28 at 09:00 UTC


270800Z 2709/2809 30006KT 9999 BKN036
TEMPO 2714/2718 30010G20KT BKN042
PROB40
TEMPO 2718/2721 5000 RA BKN013 OVC036
PROB40
TEMPO 2801/2807 5000 RA BKN020
ATIS : +33 4 73 62 74 38
No reported NOTAMs for that airfield.



MET'MAP, your aeronautical weather chart ! - Copyright ORBIFLY December 2007 - Disclaimer

ORBIFLY MET'MAP TEAM :

Programming & Development : Alexandra Zaïnal
Concept & Development : Baudouin d'Aumeries
Co-Development & Prog : Marc-Olivier Méhu
Technical & hardware support : Manuel Goepfert

Contact : metmap@orbifly.com




SOURCES & CREDITS :

   NOAA